Airfield :
LOGIN :

Register | Disclaimer

   EN    FR    IT 

 










Legend :    VFR   Marginal VFR   IFR   Intensive IFR   Very Intensive IFR
Visi :
Ceiling :
>= 8 km
>= 3000ft
5 to 8 km
1000 to 3000 ft
1500m to 5 km
500 to 1000 ft
800 to 1500m
200 to 500 ft
< 800m
< 200 ft
Symbols :   Thunderstorms  Fog  Heavy snow  Heavy precipitations  Wind > 20 kt
SIGMETs :     Misc.  Thunderstorms  Icing  Turbulence  Mountain Waves  Volcanic Ashes






- Airport Elevation : 794 ft


LKCV - Čáslav Air Base

CURRENT METAR :
  • 141300Z 22017KT 9999 SCT029 BKN040 06/02 Q0992 NOSIG RMK BLU BLU

EXPIRED METARs :
  • 141200Z 18017KT 9999 -RA FEW034 BKN043 04/02 Q0991 NOSIG RMK BLU BLU
  • 141100Z 16014KT 9999 -RA SCT029 OVC041 05/01 Q0991 NOSIG RMK BLU BLU

TAF TAF LKCV
Valid from the 14 at 12:00 until the 15 at 12:00 UTC


141100Z 1412/1512 18014KT 9999 BKN040
TEMPO 1412/1416 7000 RA BKN020
BECMG 1413/1415 27018KT
PROB30
TEMPO 1421/1501 7000 RA BKN020
BECMG 1501/1503 18008KT CAVOK
BECMG 1506/1508 6000 RA BKN015 OVC030



MET'MAP, your aeronautical weather chart ! - Copyright ORBIFLY December 2007 - Disclaimer

ORBIFLY MET'MAP TEAM :

Programming & Development : Alexandra Zaïnal
Concept & original design : Baudouin d'Aumeries
Assistance for programming : Marc-Olivier Méhu
Technical & hardware support : Manuel Goepfert

Contact : metmap@orbifly.com




SOURCES & CREDITS :

   NOAA